createdAt,value
2022-07-29T00:00:08.135Z,0.80
2022-07-29T00:00:18.046Z,0.70
2022-07-29T00:00:28.167Z,0.70
2022-07-29T00:00:38.057Z,0.70
2022-07-29T00:00:48.024Z,0.80
2022-07-29T00:00:58.224Z,0.80
2022-07-29T00:01:07.978Z,0.80
2022-07-29T00:01:19.643Z,0.80
2022-07-29T00:01:28.058Z,0.90
2022-07-29T00:01:38.139Z,0.80
2022-07-29T00:01:48.121Z,0.90
2022-07-29T00:01:58.074Z,0.80
2022-07-29T00:02:08.094Z,0.90
2022-07-29T00:02:18.124Z,0.90
2022-07-29T00:02:28.358Z,0.90
2022-07-29T00:02:38.125Z,1.00
2022-07-29T00:02:48.292Z,0.90
2022-07-29T00:02:58.194Z,0.90
2022-07-29T00:03:08.060Z,0.90
2022-07-29T00:03:18.101Z,0.90
2022-07-29T00:03:28.220Z,1.00
2022-07-29T00:03:38.066Z,0.90
2022-07-29T00:03:48.304Z,0.90
2022-07-29T00:03:58.319Z,0.80
2022-07-29T00:04:08.264Z,0.70
2022-07-29T00:04:18.718Z,0.70
2022-07-29T00:04:28.276Z,0.70
2022-07-29T00:04:38.173Z,0.80
2022-07-29T00:04:48.008Z,0.80
2022-07-29T00:04:58.185Z,0.80
2022-07-29T00:05:08.082Z,0.80
2022-07-29T00:05:18.245Z,0.80
2022-07-29T00:05:28.049Z,0.80
2022-07-29T00:05:38.273Z,0.90
2022-07-29T00:05:48.021Z,0.90
2022-07-29T00:05:58.116Z,0.90
2022-07-29T00:06:08.270Z,0.80
2022-07-29T00:06:18.081Z,0.90
2022-07-29T00:06:28.060Z,0.90
2022-07-29T00:06:38.242Z,0.90
2022-07-29T00:06:48.257Z,0.90
2022-07-29T00:06:58.054Z,0.80
2022-07-29T00:07:08.137Z,0.80
2022-07-29T00:07:18.133Z,0.80
2022-07-29T00:07:28.145Z,0.90
2022-07-29T00:07:37.981Z,0.80
2022-07-29T00:07:47.996Z,0.80
2022-07-29T00:07:58.262Z,0.80
2022-07-29T00:08:10.743Z,0.80
2022-07-29T00:08:18.169Z,0.70
2022-07-29T00:08:27.998Z,0.80
2022-07-29T00:08:38.008Z,0.80
2022-07-29T00:08:48.184Z,0.80
2022-07-29T00:08:58.114Z,0.80
2022-07-29T00:09:08.166Z,0.80
2022-07-29T00:09:18.225Z,0.80
2022-07-29T00:09:28.208Z,0.80
2022-07-29T00:09:50.490Z,0.90
2022-07-29T00:09:51.250Z,1.00
2022-07-29T00:09:58.243Z,0.90
2022-07-29T00:10:08.145Z,0.80
2022-07-29T00:10:18.276Z,0.70
2022-07-29T00:10:28.263Z,0.70
2022-07-29T00:10:38.155Z,0.70
2022-07-29T00:10:48.190Z,0.80
2022-07-29T00:10:58.101Z,0.70
2022-07-29T00:11:08.112Z,0.70
2022-07-29T00:11:18.064Z,0.80
2022-07-29T00:11:28.208Z,0.80
2022-07-29T00:11:38.128Z,0.80
2022-07-29T00:11:48.115Z,0.80
2022-07-29T00:11:58.074Z,0.80
2022-07-29T00:12:08.226Z,0.80
2022-07-29T00:12:18.209Z,0.80
2022-07-29T00:12:28.184Z,0.80
2022-07-29T00:12:38.154Z,0.80
2022-07-29T00:12:48.054Z,0.80
2022-07-29T00:12:58.081Z,0.70
2022-07-29T00:13:08.189Z,0.70
2022-07-29T00:13:18.214Z,0.70
2022-07-29T00:13:32.114Z,0.80
2022-07-29T00:13:38.273Z,0.80
2022-07-29T00:13:51.019Z,0.70
2022-07-29T00:13:58.332Z,0.70
2022-07-29T00:14:08.027Z,0.70
2022-07-29T00:14:18.712Z,0.70
2022-07-29T00:14:28.172Z,0.70
2022-07-29T00:14:38.093Z,0.80
2022-07-29T00:14:48.104Z,0.80
2022-07-29T00:14:58.196Z,0.70
2022-07-29T00:15:08.067Z,0.70
2022-07-29T00:15:18.166Z,0.70
2022-07-29T00:15:28.033Z,0.70
2022-07-29T00:15:38.057Z,0.70
2022-07-29T00:15:48.252Z,0.70
2022-07-29T00:15:58.340Z,0.70
2022-07-29T00:16:08.014Z,0.70
2022-07-29T00:16:18.216Z,0.70
2022-07-29T00:16:28.214Z,0.70
2022-07-29T00:16:38.327Z,0.70
2022-07-29T00:16:48.221Z,0.80
2022-07-29T00:16:58.061Z,0.80
2022-07-29T00:17:08.039Z,0.80
2022-07-29T00:17:19.088Z,0.80
2022-07-29T00:17:28.036Z,0.80
2022-07-29T00:17:38.214Z,0.70
2022-07-29T00:17:48.197Z,0.80
2022-07-29T00:17:58.062Z,0.90
2022-07-29T00:18:08.277Z,1.00
2022-07-29T00:18:18.139Z,0.90
2022-07-29T00:18:28.237Z,0.80
2022-07-29T00:18:38.202Z,0.80
2022-07-29T00:18:47.999Z,1.00
2022-07-29T00:19:01.855Z,1.00
2022-07-29T00:19:08.155Z,0.90
2022-07-29T00:19:18.051Z,0.70
2022-07-29T00:19:28.270Z,0.80
2022-07-29T00:19:38.101Z,0.80
2022-07-29T00:19:48.066Z,0.70
2022-07-29T00:19:58.240Z,0.70
2022-07-29T00:20:08.082Z,0.70
2022-07-29T00:20:18.035Z,0.80
2022-07-29T00:20:28.148Z,0.70
2022-07-29T00:20:38.269Z,0.80
2022-07-29T00:20:48.022Z,0.80
2022-07-29T00:20:58.176Z,0.70
2022-07-29T00:21:08.132Z,0.70
2022-07-29T00:21:18.271Z,0.60
2022-07-29T00:21:28.286Z,0.80
2022-07-29T00:21:38.278Z,0.80
2022-07-29T00:21:48.050Z,0.90
2022-07-29T00:21:57.978Z,0.80
2022-07-29T00:22:08.240Z,0.80
2022-07-29T00:22:18.090Z,0.80
2022-07-29T00:22:28.058Z,0.80
2022-07-29T00:22:38.179Z,0.80
2022-07-29T00:22:48.017Z,0.70
2022-07-29T00:22:58.009Z,0.70
2022-07-29T00:23:08.286Z,0.90
2022-07-29T00:23:18.068Z,0.80
2022-07-29T00:23:28.093Z,0.90
2022-07-29T00:23:38.092Z,0.80
2022-07-29T00:23:48.201Z,0.90
2022-07-29T00:23:58.205Z,0.80
2022-07-29T00:24:07.991Z,0.80
2022-07-29T00:24:18.537Z,0.90
2022-07-29T00:24:28.282Z,1.00
2022-07-29T00:24:38.253Z,0.90
2022-07-29T00:24:48.216Z,0.80
2022-07-29T00:24:58.118Z,0.70
2022-07-29T00:25:08.093Z,0.80
2022-07-29T00:25:18.013Z,0.90
2022-07-29T00:25:27.985Z,0.90
2022-07-29T00:25:38.247Z,0.80
2022-07-29T00:25:48.072Z,0.90
2022-07-29T00:25:58.122Z,0.90
2022-07-29T00:26:08.005Z,1.00
2022-07-29T00:26:18.063Z,0.90
2022-07-29T00:26:28.099Z,0.90
2022-07-29T00:26:38.261Z,0.90
2022-07-29T00:26:48.143Z,0.90
2022-07-29T00:26:58.275Z,0.90
2022-07-29T00:27:08.143Z,0.90
2022-07-29T00:27:18.038Z,0.90
2022-07-29T00:27:28.077Z,0.90
2022-07-29T00:27:38.130Z,0.90
2022-07-29T00:27:48.107Z,0.90
2022-07-29T00:27:58.183Z,0.90
2022-07-29T00:28:08.152Z,0.90
2022-07-29T00:28:18.114Z,1.00
2022-07-29T00:28:28.055Z,0.90
2022-07-29T00:28:38.186Z,0.90
2022-07-29T00:28:48.258Z,0.90
2022-07-29T00:29:23.688Z,1.00
2022-07-29T00:29:33.631Z,0.80
2022-07-29T00:29:34.045Z,0.70
2022-07-29T00:29:37.713Z,0.80
2022-07-29T00:29:38.016Z,0.80
2022-07-29T00:29:48.075Z,0.80
2022-07-29T00:29:58.154Z,0.90
2022-07-29T00:30:08.118Z,0.90
2022-07-29T00:30:18.060Z,0.90
2022-07-29T00:30:28.097Z,0.80
2022-07-29T00:30:38.179Z,0.80
2022-07-29T00:30:48.097Z,0.90
2022-07-29T00:30:58.054Z,0.90
2022-07-29T00:31:08.235Z,1.00
2022-07-29T00:31:18.211Z,0.90
2022-07-29T00:31:28.186Z,1.00
2022-07-29T00:31:38.348Z,0.90
2022-07-29T00:31:48.280Z,1.00
2022-07-29T00:31:58.366Z,1.00
2022-07-29T00:32:08.213Z,0.90
2022-07-29T00:32:18.056Z,0.90
2022-07-29T00:32:28.028Z,1.00
2022-07-29T00:32:38.299Z,0.90
2022-07-29T00:32:48.157Z,0.90
2022-07-29T00:32:58.112Z,0.90
2022-07-29T00:33:09.212Z,1.00
2022-07-29T00:33:17.990Z,1.10
2022-07-29T00:33:28.151Z,1.00
2022-07-29T00:33:37.997Z,1.00
2022-07-29T00:33:48.111Z,0.90
2022-07-29T00:33:58.090Z,0.90
2022-07-29T00:34:08.194Z,1.00
2022-07-29T00:34:18.339Z,1.00
2022-07-29T00:34:28.196Z,1.10
2022-07-29T00:34:38.096Z,1.00
2022-07-29T00:34:48.270Z,0.90
2022-07-29T00:34:58.268Z,0.90
2022-07-29T00:35:08.187Z,0.90
2022-07-29T00:35:18.284Z,1.00
2022-07-29T00:35:28.161Z,1.00
2022-07-29T00:35:38.180Z,0.90
2022-07-29T00:35:48.203Z,0.90
2022-07-29T00:35:58.082Z,0.90
2022-07-29T00:36:08.221Z,0.90
2022-07-29T00:36:18.158Z,1.00
2022-07-29T00:36:28.259Z,1.00
2022-07-29T00:36:38.186Z,1.10
2022-07-29T00:36:48.117Z,1.30
2022-07-29T00:36:58.015Z,1.20
2022-07-29T00:37:08.210Z,1.10
2022-07-29T00:37:18.002Z,1.10
2022-07-29T00:37:28.027Z,1.10
2022-07-29T00:37:38.257Z,1.10
2022-07-29T00:37:48.255Z,1.00
2022-07-29T00:37:58.072Z,1.00
2022-07-29T00:38:07.981Z,0.90
2022-07-29T00:38:18.216Z,1.00
2022-07-29T00:38:28.065Z,1.20
2022-07-29T00:38:38.030Z,1.20
2022-07-29T00:38:48.101Z,1.20
2022-07-29T00:38:58.055Z,1.10
2022-07-29T00:39:08.074Z,1.00
2022-07-29T00:39:18.018Z,1.00
2022-07-29T00:39:28.294Z,1.00
2022-07-29T00:39:38.078Z,1.00
2022-07-29T00:39:48.166Z,1.10
2022-07-29T00:39:58.278Z,1.00
2022-07-29T00:40:08.274Z,1.00
2022-07-29T00:40:18.225Z,1.00
2022-07-29T00:40:28.021Z,1.00
2022-07-29T00:40:38.167Z,1.20
2022-07-29T00:40:48.261Z,1.20
2022-07-29T00:40:58.062Z,1.20
2022-07-29T00:41:08.053Z,1.00
2022-07-29T00:41:18.118Z,1.00
2022-07-29T00:41:28.017Z,0.80
2022-07-29T00:41:38.001Z,0.90
2022-07-29T00:41:47.974Z,0.90
2022-07-29T00:41:57.997Z,1.10
2022-07-29T00:42:08.162Z,1.00
2022-07-29T00:42:18.145Z,1.10
2022-07-29T00:42:28.276Z,1.00
2022-07-29T00:42:38.051Z,1.10
2022-07-29T00:42:48.165Z,1.00
2022-07-29T00:42:58.087Z,1.00
2022-07-29T00:43:08.331Z,0.80
2022-07-29T00:43:18.245Z,1.00
2022-07-29T00:43:27.991Z,1.00
2022-07-29T00:43:38.220Z,1.10
2022-07-29T00:43:48.022Z,1.10
2022-07-29T00:43:58.141Z,1.10
2022-07-29T00:44:08.258Z,1.20
2022-07-29T00:44:18.596Z,1.20
2022-07-29T00:44:28.144Z,1.20
2022-07-29T00:44:38.198Z,1.20
2022-07-29T00:44:48.095Z,1.10
2022-07-29T00:44:58.123Z,1.00
2022-07-29T00:45:08.328Z,0.90
2022-07-29T00:45:18.226Z,0.90
2022-07-29T00:45:28.173Z,1.00
2022-07-29T00:45:38.185Z,1.00
2022-07-29T00:45:48.162Z,1.10
2022-07-29T00:45:58.013Z,1.10
2022-07-29T00:46:08.156Z,1.10
2022-07-29T00:46:18.090Z,1.10
2022-07-29T00:46:28.363Z,1.10
2022-07-29T00:46:38.174Z,0.90
2022-07-29T00:46:48.342Z,1.10
2022-07-29T00:46:58.198Z,1.10
2022-07-29T00:47:08.271Z,1.20
2022-07-29T00:47:18.248Z,1.00
2022-07-29T00:47:28.268Z,1.00
2022-07-29T00:47:38.023Z,1.00
2022-07-29T00:47:47.987Z,1.00
2022-07-29T00:47:58.185Z,1.00
2022-07-29T00:48:08.244Z,1.00
2022-07-29T00:48:18.129Z,1.10
2022-07-29T00:48:28.008Z,1.20
2022-07-29T00:48:38.141Z,1.10
2022-07-29T00:48:48.249Z,1.10
2022-07-29T00:48:58.215Z,1.10
2022-07-29T00:49:08.179Z,1.20
2022-07-29T00:49:18.212Z,1.10
2022-07-29T00:49:28.309Z,1.10
2022-07-29T00:49:38.038Z,1.00
2022-07-29T00:49:48.239Z,1.00
2022-07-29T00:49:58.018Z,1.00
2022-07-29T00:50:08.286Z,1.10
2022-07-29T00:50:18.239Z,1.10
2022-07-29T00:50:28.114Z,1.20
2022-07-29T00:50:38.295Z,1.00
2022-07-29T00:50:48.032Z,1.00
2022-07-29T00:50:58.048Z,0.90
2022-07-29T00:51:08.162Z,1.00
2022-07-29T00:51:18.293Z,1.10
2022-07-29T00:51:28.283Z,1.10
2022-07-29T00:51:38.019Z,1.20
2022-07-29T00:51:48.120Z,1.10
2022-07-29T00:51:58.224Z,1.00
2022-07-29T00:52:08.272Z,1.00
2022-07-29T00:52:18.220Z,1.00
2022-07-29T00:52:28.224Z,1.10
2022-07-29T00:52:38.090Z,1.10
2022-07-29T00:52:48.111Z,1.20
2022-07-29T00:52:58.217Z,1.30
2022-07-29T00:53:08.214Z,1.30
2022-07-29T00:53:18.015Z,1.20
2022-07-29T00:53:28.100Z,1.00
2022-07-29T00:53:38.096Z,0.90
2022-07-29T00:53:48.024Z,0.90
2022-07-29T00:53:58.221Z,0.90
2022-07-29T00:54:08.062Z,1.00
2022-07-29T00:54:18.505Z,1.00
2022-07-29T00:54:28.001Z,1.00
2022-07-29T00:54:43.828Z,1.00
2022-07-29T00:54:48.279Z,0.90
2022-07-29T00:54:58.038Z,1.10
2022-07-29T00:55:08.813Z,1.00
2022-07-29T00:55:18.116Z,1.00
2022-07-29T00:55:28.249Z,0.90
2022-07-29T00:55:38.239Z,1.20
2022-07-29T00:55:48.225Z,1.30
2022-07-29T00:55:58.103Z,1.30
2022-07-29T00:56:07.994Z,1.00
2022-07-29T00:56:18.192Z,1.10
2022-07-29T00:56:28.224Z,1.10
2022-07-29T00:56:38.138Z,1.10
2022-07-29T00:56:48.106Z,0.80
2022-07-29T00:56:58.232Z,1.00
2022-07-29T00:57:08.023Z,1.00
2022-07-29T00:57:18.082Z,1.10
2022-07-29T00:57:28.125Z,1.00
2022-07-29T00:57:38.038Z,1.10
2022-07-29T00:57:48.175Z,0.90
2022-07-29T00:57:58.013Z,0.90
2022-07-29T00:58:08.265Z,0.90
2022-07-29T00:58:18.088Z,1.00
2022-07-29T00:58:28.250Z,1.10
2022-07-29T00:58:38.213Z,1.00
2022-07-29T00:58:48.136Z,0.90
2022-07-29T00:58:58.110Z,1.00
2022-07-29T00:59:08.172Z,1.00
2022-07-29T00:59:18.180Z,1.10
2022-07-29T00:59:35.143Z,1.10
2022-07-29T00:59:38.300Z,1.00
2022-07-29T00:59:48.289Z,1.00
2022-07-29T00:59:58.016Z,1.00
2022-07-29T01:00:08.168Z,1.00
2022-07-29T01:00:18.175Z,1.00
2022-07-29T01:00:28.078Z,1.00
2022-07-29T01:00:38.173Z,1.10
2022-07-29T01:00:48.225Z,1.10
2022-07-29T01:00:58.165Z,1.10
2022-07-29T01:01:08.223Z,1.00
2022-07-29T01:01:18.286Z,1.00
2022-07-29T01:01:28.173Z,1.00
2022-07-29T01:01:38.274Z,1.30
2022-07-29T01:01:48.296Z,1.30
2022-07-29T01:01:58.127Z,1.20
2022-07-29T01:02:08.269Z,1.10
2022-07-29T01:02:18.241Z,0.90
2022-07-29T01:02:28.159Z,1.00
2022-07-29T01:02:38.196Z,1.00
2022-07-29T01:02:48.000Z,1.00
2022-07-29T01:02:58.004Z,0.80
2022-07-29T01:03:08.206Z,0.80
2022-07-29T01:03:18.060Z,0.80
2022-07-29T01:03:28.100Z,1.00
2022-07-29T01:03:38.163Z,1.10
2022-07-29T01:03:48.022Z,1.10
2022-07-29T01:03:58.223Z,1.10
2022-07-29T01:04:08.256Z,1.00
2022-07-29T01:04:18.374Z,1.00
2022-07-29T01:04:28.268Z,1.10
2022-07-29T01:04:38.060Z,1.10
2022-07-29T01:04:48.207Z,1.10
2022-07-29T01:04:58.185Z,1.00
2022-07-29T01:05:08.266Z,1.00
2022-07-29T01:05:18.172Z,1.10
2022-07-29T01:05:49.966Z,1.10
2022-07-29T01:05:50.901Z,1.10
2022-07-29T01:05:51.359Z,1.00
2022-07-29T01:05:58.039Z,1.00
2022-07-29T01:06:08.016Z,1.00
2022-07-29T01:06:18.115Z,1.00
2022-07-29T01:06:28.044Z,0.90
2022-07-29T01:06:37.991Z,0.90
2022-07-29T01:06:48.242Z,0.90
2022-07-29T01:06:58.235Z,1.00
2022-07-29T01:07:08.247Z,1.10
2022-07-29T01:07:18.101Z,1.00
2022-07-29T01:07:28.301Z,1.00
2022-07-29T01:07:38.220Z,0.90
2022-07-29T01:07:48.130Z,1.00
2022-07-29T01:07:58.197Z,1.00
2022-07-29T01:08:08.033Z,1.10
2022-07-29T01:08:18.205Z,1.10
2022-07-29T01:08:28.151Z,1.10
2022-07-29T01:08:38.111Z,1.00
2022-07-29T01:08:48.261Z,0.90
2022-07-29T01:08:58.081Z,0.90
2022-07-29T01:09:08.145Z,1.00
2022-07-29T01:09:18.203Z,1.10
2022-07-29T01:09:37.273Z,1.10
2022-07-29T01:09:46.790Z,0.90
2022-07-29T01:09:48.257Z,0.80
2022-07-29T01:09:58.024Z,0.80
2022-07-29T01:10:08.261Z,0.80
2022-07-29T01:10:18.268Z,0.90
2022-07-29T01:10:28.056Z,1.00
2022-07-29T01:10:38.202Z,1.00
2022-07-29T01:10:48.002Z,1.00
2022-07-29T01:10:58.056Z,1.00
2022-07-29T01:11:08.142Z,1.10
2022-07-29T01:11:18.146Z,1.10
2022-07-29T01:11:28.234Z,1.00
2022-07-29T01:11:38.096Z,1.10
2022-07-29T01:11:47.981Z,0.90
2022-07-29T01:11:58.019Z,1.00
2022-07-29T01:12:08.057Z,0.90
2022-07-29T01:12:17.984Z,0.90
2022-07-29T01:12:28.262Z,0.90
2022-07-29T01:12:38.174Z,0.90
2022-07-29T01:12:48.146Z,0.90
2022-07-29T01:12:58.007Z,0.90
2022-07-29T01:13:08.472Z,0.90
2022-07-29T01:13:18.196Z,1.00
2022-07-29T01:13:28.144Z,1.00
2022-07-29T01:13:38.012Z,1.10
2022-07-29T01:13:48.094Z,1.10
2022-07-29T01:13:58.081Z,1.10
2022-07-29T01:14:08.198Z,1.00
2022-07-29T01:14:18.399Z,0.90
2022-07-29T01:14:28.258Z,0.90
2022-07-29T01:14:38.157Z,0.90
2022-07-29T01:14:48.272Z,0.90
2022-07-29T01:14:58.221Z,0.80
2022-07-29T01:15:08.070Z,0.80
2022-07-29T01:15:18.194Z,0.80
2022-07-29T01:15:28.033Z,1.00
2022-07-29T01:15:38.257Z,1.10
2022-07-29T01:15:48.847Z,1.10
2022-07-29T01:15:58.137Z,1.00
2022-07-29T01:16:08.310Z,0.90
2022-07-29T01:16:18.013Z,0.90
2022-07-29T01:16:28.133Z,0.90
2022-07-29T01:16:38.209Z,0.90
2022-07-29T01:16:48.251Z,0.90
2022-07-29T01:16:58.166Z,0.90
2022-07-29T01:17:08.222Z,0.80
2022-07-29T01:17:18.053Z,0.70
2022-07-29T01:17:28.151Z,0.80
2022-07-29T01:17:38.190Z,1.00
2022-07-29T01:17:52.602Z,1.00
2022-07-29T01:17:58.055Z,1.10
2022-07-29T01:18:08.190Z,1.00
2022-07-29T01:18:18.226Z,1.10
2022-07-29T01:18:28.000Z,1.00
2022-07-29T01:18:38.085Z,0.90
2022-07-29T01:18:48.193Z,0.80
2022-07-29T01:18:58.272Z,0.80
2022-07-29T01:19:08.054Z,0.80
2022-07-29T01:19:17.984Z,0.80
2022-07-29T01:19:28.170Z,0.80
2022-07-29T01:19:38.102Z,0.90
2022-07-29T01:19:48.156Z,1.00
2022-07-29T01:19:58.059Z,1.10
2022-07-29T01:20:08.062Z,1.20
2022-07-29T01:20:17.986Z,1.10
2022-07-29T01:20:31.270Z,1.00
2022-07-29T01:20:38.068Z,0.90
2022-07-29T01:20:48.038Z,0.90
2022-07-29T01:20:58.247Z,0.80
2022-07-29T01:21:08.145Z,0.90
2022-07-29T01:21:18.251Z,0.80
2022-07-29T01:21:28.196Z,0.90
2022-07-29T01:21:38.256Z,1.00
2022-07-29T01:21:48.318Z,1.00
2022-07-29T01:21:58.285Z,1.10
2022-07-29T01:22:08.313Z,1.10
2022-07-29T01:22:18.089Z,1.10
2022-07-29T01:22:28.162Z,1.10
2022-07-29T01:22:38.181Z,0.90
2022-07-29T01:22:48.095Z,1.00
2022-07-29T01:22:58.122Z,0.90
2022-07-29T01:23:08.225Z,1.00
2022-07-29T01:23:18.123Z,1.00
2022-07-29T01:23:28.136Z,0.90
2022-07-29T01:23:38.221Z,0.90
2022-07-29T01:23:48.026Z,1.00
2022-07-29T01:23:58.240Z,1.00
2022-07-29T01:24:08.070Z,1.00
2022-07-29T01:24:18.597Z,1.00
2022-07-29T01:24:28.156Z,1.00
2022-07-29T01:24:38.007Z,1.10
2022-07-29T01:24:48.263Z,1.10
2022-07-29T01:24:58.074Z,1.20
2022-07-29T01:25:08.060Z,1.00
2022-07-29T01:25:18.271Z,1.00
2022-07-29T01:25:28.343Z,0.90
2022-07-29T01:25:37.984Z,0.80
2022-07-29T01:25:50.759Z,0.80
2022-07-29T01:25:58.210Z,0.90
2022-07-29T01:26:08.164Z,0.90
2022-07-29T01:26:20.403Z,1.00
2022-07-29T01:26:28.013Z,1.00
2022-07-29T01:26:38.266Z,1.00
2022-07-29T01:26:48.093Z,1.00
2022-07-29T01:26:58.168Z,0.90
2022-07-29T01:27:08.213Z,0.90
2022-07-29T01:27:18.248Z,0.90
2022-07-29T01:27:28.065Z,0.90
2022-07-29T01:27:38.101Z,0.80
2022-07-29T01:27:48.172Z,0.90
2022-07-29T01:27:58.220Z,0.90
2022-07-29T01:28:08.038Z,0.90
2022-07-29T01:28:18.214Z,0.80
2022-07-29T01:28:28.160Z,1.00
2022-07-29T01:28:38.196Z,1.00
2022-07-29T01:28:48.065Z,1.00
2022-07-29T01:28:58.029Z,0.80
2022-07-29T01:29:08.618Z,0.80
2022-07-29T01:29:18.258Z,0.90
2022-07-29T01:29:29.816Z,0.90
2022-07-29T01:29:40.298Z,1.00
2022-07-29T01:29:48.139Z,0.90
2022-07-29T01:29:58.248Z,0.90
2022-07-29T01:30:08.077Z,1.00
2022-07-29T01:30:18.302Z,1.00
2022-07-29T01:30:28.151Z,1.00
2022-07-29T01:30:38.244Z,0.90
2022-07-29T01:30:48.132Z,1.00
2022-07-29T01:30:58.222Z,0.90
2022-07-29T01:31:08.012Z,0.90
2022-07-29T01:31:25.042Z,0.80
2022-07-29T01:31:28.323Z,0.80
2022-07-29T01:31:38.493Z,0.90
2022-07-29T01:31:58.653Z,1.00
2022-07-29T01:31:59.366Z,0.90
2022-07-29T01:32:08.050Z,0.80
2022-07-29T01:32:28.051Z,0.80
2022-07-29T01:32:29.487Z,0.90
2022-07-29T01:32:38.135Z,0.90
2022-07-29T01:32:48.187Z,1.00
2022-07-29T01:32:58.061Z,1.00
2022-07-29T01:33:08.017Z,0.90
2022-07-29T01:33:17.993Z,0.90
2022-07-29T01:33:28.116Z,0.80
2022-07-29T01:33:38.234Z,1.00
2022-07-29T01:33:48.194Z,1.10
2022-07-29T01:33:58.199Z,1.00
2022-07-29T01:34:08.268Z,0.90
2022-07-29T01:34:18.673Z,0.80
2022-07-29T01:34:28.183Z,0.70
2022-07-29T01:34:38.057Z,0.80
2022-07-29T01:34:48.203Z,0.70
2022-07-29T01:34:58.297Z,0.90
2022-07-29T01:35:08.067Z,0.90
2022-07-29T01:35:18.249Z,1.00
2022-07-29T01:35:28.262Z,0.80
2022-07-29T01:35:38.092Z,0.80
2022-07-29T01:35:48.349Z,0.80
2022-07-29T01:35:58.233Z,0.90
2022-07-29T01:36:08.200Z,0.90
2022-07-29T01:36:18.086Z,1.00
2022-07-29T01:36:28.249Z,0.90
2022-07-29T01:36:38.172Z,1.00
2022-07-29T01:36:48.318Z,1.00
2022-07-29T01:36:58.233Z,1.10
2022-07-29T01:37:08.290Z,1.00
2022-07-29T01:37:18.117Z,1.10
2022-07-29T01:37:27.982Z,1.00
2022-07-29T01:37:38.195Z,0.90
2022-07-29T01:37:48.143Z,0.90
2022-07-29T01:37:58.222Z,0.90
2022-07-29T01:38:07.997Z,1.00
2022-07-29T01:38:18.129Z,0.90
2022-07-29T01:38:28.162Z,0.80
2022-07-29T01:38:38.273Z,0.80
2022-07-29T01:38:48.130Z,1.00
2022-07-29T01:38:58.217Z,1.00
2022-07-29T01:39:08.170Z,1.00
2022-07-29T01:39:17.994Z,0.80
2022-07-29T01:39:28.272Z,0.70
2022-07-29T01:39:38.195Z,0.80
2022-07-29T01:39:48.014Z,0.90
2022-07-29T01:39:58.109Z,0.90
2022-07-29T01:40:08.202Z,0.90
2022-07-29T01:40:17.986Z,0.90
2022-07-29T01:40:28.124Z,0.90
2022-07-29T01:40:38.071Z,0.90
2022-07-29T01:40:48.152Z,0.90
2022-07-29T01:40:58.086Z,1.00
2022-07-29T01:41:08.193Z,1.00
2022-07-29T01:41:18.082Z,1.00
2022-07-29T01:41:28.116Z,1.00
2022-07-29T01:41:37.976Z,0.90
2022-07-29T01:41:48.200Z,0.90
2022-07-29T01:41:58.118Z,0.90
2022-07-29T01:42:08.080Z,0.90
2022-07-29T01:42:18.181Z,0.90
2022-07-29T01:42:28.065Z,0.90
2022-07-29T01:42:38.148Z,1.00
2022-07-29T01:42:48.085Z,1.00
2022-07-29T01:42:58.027Z,1.10
2022-07-29T01:43:08.181Z,1.00
2022-07-29T01:43:18.139Z,0.90
2022-07-29T01:43:28.162Z,1.00
2022-07-29T01:43:38.021Z,1.00
2022-07-29T01:43:48.013Z,1.10
2022-07-29T01:43:58.249Z,1.00
2022-07-29T01:44:08.167Z,1.10
2022-07-29T01:44:18.842Z,1.10
2022-07-29T01:44:28.129Z,1.00
2022-07-29T01:44:38.009Z,1.00
2022-07-29T01:44:48.028Z,1.00
2022-07-29T01:44:58.073Z,1.00
2022-07-29T01:45:08.096Z,1.10
2022-07-29T01:45:18.164Z,0.90
2022-07-29T01:45:28.096Z,1.10
2022-07-29T01:45:38.080Z,1.10
2022-07-29T01:45:48.102Z,1.10
2022-07-29T01:45:58.108Z,1.00
2022-07-29T01:46:08.238Z,0.90
2022-07-29T01:46:18.290Z,0.90
2022-07-29T01:46:28.341Z,0.90
2022-07-29T01:46:38.350Z,1.00
2022-07-29T01:46:48.162Z,1.00
2022-07-29T01:46:58.124Z,1.00
2022-07-29T01:47:08.081Z,1.00
2022-07-29T01:47:18.180Z,0.90
2022-07-29T01:47:28.036Z,1.00
2022-07-29T01:47:38.266Z,1.00
2022-07-29T01:47:48.002Z,1.20
2022-07-29T01:47:58.010Z,1.00
2022-07-29T01:48:08.089Z,1.00
2022-07-29T01:48:18.248Z,0.80
2022-07-29T01:48:28.165Z,1.00
2022-07-29T01:48:38.153Z,1.00
2022-07-29T01:48:48.137Z,1.00
2022-07-29T01:48:58.095Z,0.90
2022-07-29T01:49:08.251Z,1.00
2022-07-29T01:49:18.112Z,1.10
2022-07-29T01:49:28.100Z,1.20
2022-07-29T01:49:38.272Z,1.10
2022-07-29T01:49:48.088Z,1.00
2022-07-29T01:49:58.249Z,1.00
2022-07-29T01:50:08.264Z,0.90
2022-07-29T01:50:18.085Z,0.90
2022-07-29T01:50:28.185Z,0.90
2022-07-29T01:50:38.066Z,1.10
2022-07-29T01:50:48.155Z,1.10
2022-07-29T01:50:58.093Z,1.00
2022-07-29T01:51:08.187Z,1.00
2022-07-29T01:51:18.238Z,1.10
2022-07-29T01:51:28.128Z,1.10
2022-07-29T01:51:38.202Z,1.00
2022-07-29T01:51:48.213Z,0.90
2022-07-29T01:51:58.102Z,0.90
2022-07-29T01:52:08.049Z,1.00
2022-07-29T01:52:19.336Z,1.00
2022-07-29T01:52:28.189Z,1.00
2022-07-29T01:52:38.065Z,1.10
2022-07-29T01:52:48.017Z,1.00
2022-07-29T01:52:58.043Z,1.00
2022-07-29T01:53:08.107Z,1.00
2022-07-29T01:53:17.997Z,1.00
2022-07-29T01:53:28.211Z,1.20
2022-07-29T01:53:38.428Z,1.20
2022-07-29T01:53:48.104Z,1.10
2022-07-29T01:53:58.135Z,1.00
2022-07-29T01:54:08.218Z,1.00
2022-07-29T01:54:18.371Z,1.00
2022-07-29T01:54:28.042Z,1.10
2022-07-29T01:54:38.235Z,1.10
2022-07-29T01:54:48.044Z,1.10
2022-07-29T01:54:58.203Z,1.20
2022-07-29T01:55:08.058Z,1.20
2022-07-29T01:55:17.974Z,1.20
2022-07-29T01:55:28.173Z,1.20
2022-07-29T01:55:38.130Z,1.10
2022-07-29T01:55:48.215Z,0.90
2022-07-29T01:55:58.147Z,1.10
2022-07-29T01:56:08.068Z,1.10
2022-07-29T01:56:18.021Z,1.10
2022-07-29T01:56:28.103Z,1.00
2022-07-29T01:56:38.196Z,0.90
2022-07-29T01:56:48.062Z,1.00
2022-07-29T01:56:58.095Z,1.00
2022-07-29T01:57:08.148Z,1.00
2022-07-29T01:57:18.062Z,1.00
2022-07-29T01:57:28.090Z,1.00
2022-07-29T01:57:38.252Z,1.00
2022-07-29T01:57:48.546Z,1.10
2022-07-29T01:57:58.141Z,1.00
2022-07-29T01:58:08.242Z,1.00
2022-07-29T01:58:18.206Z,1.00
2022-07-29T01:58:28.250Z,1.10
2022-07-29T01:58:38.025Z,1.10
2022-07-29T01:58:48.231Z,1.10
2022-07-29T01:58:58.101Z,1.00
2022-07-29T01:59:08.200Z,1.10
2022-07-29T01:59:18.228Z,0.90
2022-07-29T01:59:27.988Z,1.00
2022-07-29T01:59:38.210Z,1.00
2022-07-29T01:59:47.997Z,1.00
2022-07-29T01:59:58.245Z,1.00
2022-07-29T02:00:08.266Z,1.00
2022-07-29T02:00:18.186Z,1.10
2022-07-29T02:00:28.115Z,1.00
2022-07-29T02:00:38.134Z,1.10
2022-07-29T02:00:48.038Z,1.00
2022-07-29T02:00:58.221Z,1.00
2022-07-29T02:01:08.064Z,1.00
2022-07-29T02:01:18.031Z,1.00
2022-07-29T02:01:28.326Z,0.90
2022-07-29T02:01:38.218Z,1.00
2022-07-29T02:01:48.289Z,1.10
2022-07-29T02:01:58.143Z,1.20
2022-07-29T02:02:08.309Z,1.10
2022-07-29T02:02:18.081Z,1.00
2022-07-29T02:02:28.068Z,1.00
2022-07-29T02:02:38.136Z,1.10
2022-07-29T02:02:47.992Z,1.20
2022-07-29T02:02:58.259Z,1.10
2022-07-29T02:03:08.062Z,1.00
2022-07-29T02:03:18.089Z,1.00
2022-07-29T02:03:28.014Z,1.00
2022-07-29T02:03:38.243Z,1.00
2022-07-29T02:03:48.011Z,1.10
2022-07-29T02:03:58.194Z,1.10
2022-07-29T02:04:08.265Z,1.10
2022-07-29T02:04:29.470Z,1.10
2022-07-29T02:04:29.758Z,1.10
2022-07-29T02:04:38.318Z,1.00
2022-07-29T02:04:48.304Z,1.00
2022-07-29T02:04:58.246Z,1.00
2022-07-29T02:05:08.334Z,1.00
2022-07-29T02:05:18.411Z,1.00
2022-07-29T02:05:28.110Z,1.00
2022-07-29T02:05:38.189Z,1.00
2022-07-29T02:05:48.132Z,1.00
2022-07-29T02:05:58.288Z,1.00
2022-07-29T02:06:08.040Z,1.10
2022-07-29T02:06:18.142Z,1.10
2022-07-29T02:06:28.162Z,1.00
2022-07-29T02:06:38.152Z,1.00
2022-07-29T02:06:48.014Z,1.00
2022-07-29T02:06:58.115Z,1.00
2022-07-29T02:07:07.978Z,1.00
2022-07-29T02:07:17.990Z,1.10
2022-07-29T02:07:28.026Z,1.10
2022-07-29T02:07:38.313Z,1.10
2022-07-29T02:07:48.132Z,1.10
2022-07-29T02:07:58.214Z,1.10
2022-07-29T02:08:08.296Z,1.10
2022-07-29T02:08:18.182Z,1.00
2022-07-29T02:08:28.000Z,1.00
2022-07-29T02:08:38.239Z,1.10
2022-07-29T02:08:48.149Z,1.20
2022-07-29T02:08:58.109Z,1.20
2022-07-29T02:09:08.616Z,1.10
2022-07-29T02:09:18.123Z,1.10
2022-07-29T02:09:28.232Z,1.10
2022-07-29T02:09:38.011Z,1.10
2022-07-29T02:09:48.262Z,1.00
2022-07-29T02:09:58.198Z,1.00
2022-07-29T02:10:08.137Z,1.10
2022-07-29T02:10:18.116Z,1.10
2022-07-29T02:10:28.117Z,1.10
2022-07-29T02:10:38.085Z,1.00
2022-07-29T02:10:48.014Z,1.00
2022-07-29T02:10:58.099Z,1.00
2022-07-29T02:11:08.106Z,1.10
2022-07-29T02:11:18.112Z,1.20
2022-07-29T02:11:28.097Z,1.20
2022-07-29T02:11:38.023Z,1.20
2022-07-29T02:11:48.138Z,1.20
2022-07-29T02:11:57.984Z,1.20
2022-07-29T02:12:08.225Z,1.10
2022-07-29T02:12:18.305Z,1.10
2022-07-29T02:12:28.096Z,1.00
2022-07-29T02:12:38.031Z,1.00
2022-07-29T02:12:50.787Z,1.10
2022-07-29T02:12:58.083Z,1.10
2022-07-29T02:13:08.038Z,1.20